UATG/GUW METAR and TAF weather

Enter ICAO airport designator
Station Type Date Time Source
UATG METAR 2020/01/18 13:00 UTC NOAA

UATG 181300Z 02005MPS 4000 SHSN BR BKN010 OVC020CB M01/M02 Q1023 R32/82//37 NOSIG RMK QFE769/1025


Station Type Date Time Source
UATG Decoded METAR 2020/01/18 13:00 UTC NOAA

Station name not available
Jan 18, 2020 - 08:00 AM EST / 2020.01.18 1300 UTC
Wind: from the NNE (020 degrees) at 11 MPH (10 KT):0
Visibility: 2 mile(s):0
Sky conditions: overcast
Weather: snow showers; mist; Cumulonimbus clouds observed
Temperature: 30 F (-1 C)
Windchill: 21 F (-6 C):1
Dew Point: 28 F (-2 C)
Relative Humidity: 92%
Pressure (altimeter): 30.21 in. Hg (1023 hPa)
ob: UATG 181300Z 02005MPS 4000 SHSN BR BKN010 OVC020CB M01/M02 Q1023 R32/82//37 NOSIG RMK QFE769/1025
cycle: 13

Station Type Date Time Source
UATG TAF 2020/01/18 12:21 UTC NOAA

TAF UATG 181101Z 1812/1912 01006MPS 3100 -SHSN BR BKN011 OVC020CB TXM02/1910Z TNM05/1904Z
TEMPO 1812/1818 1500 SHSN BR BKN005 OVC020CB
TEMPO 1818/1905 0300 -SG FZFG OVC001
FM190800 36004MPS 3100 BR BKN011 BKN030CB

Example: see airport list